sensor_id;sensor_type;location;lat;lon;timestamp;P1;durP1;ratioP1;P2;durP2;ratioP2
41466;SDS011;27205;53.690;19.948;2023-02-28T00:01:26;35.80;;;32.90;;
41466;SDS011;27205;53.690;19.948;2023-02-28T00:06:31;34.50;;;31.70;;
41466;SDS011;27205;53.690;19.948;2023-02-28T00:11:34;38.00;;;35.00;;
41466;SDS011;27205;53.690;19.948;2023-02-28T00:16:38;23.60;;;21.80;;
41466;SDS011;27205;53.690;19.948;2023-02-28T00:21:41;30.40;;;28.00;;
41466;SDS011;27205;53.690;19.948;2023-02-28T00:26:45;26.10;;;24.00;;
41466;SDS011;27205;53.690;19.948;2023-02-28T00:31:49;28.10;;;26.10;;
41466;SDS011;27205;53.690;19.948;2023-02-28T00:36:53;25.90;;;24.10;;
41466;SDS011;27205;53.690;19.948;2023-02-28T00:41:56;27.00;;;24.90;;
41466;SDS011;27205;53.690;19.948;2023-02-28T00:47:00;22.90;;;21.20;;
41466;SDS011;27205;53.690;19.948;2023-02-28T00:52:04;25.40;;;23.60;;
41466;SDS011;27205;53.690;19.948;2023-02-28T00:57:08;19.00;;;17.50;;
41466;SDS011;27205;53.690;19.948;2023-02-28T01:02:12;16.70;;;15.20;;
41466;SDS011;27205;53.690;19.948;2023-02-28T01:07:15;16.10;;;14.90;;
41466;SDS011;27205;53.690;19.948;2023-02-28T01:12:19;16.60;;;15.20;;
41466;SDS011;27205;53.690;19.948;2023-02-28T01:17:23;17.00;;;15.50;;
41466;SDS011;27205;53.690;19.948;2023-02-28T01:22:26;16.60;;;15.20;;
41466;SDS011;27205;53.690;19.948;2023-02-28T01:27:30;16.10;;;14.80;;
41466;SDS011;27205;53.690;19.948;2023-02-28T01:32:34;17.20;;;15.90;;
41466;SDS011;27205;53.690;19.948;2023-02-28T01:37:39;15.20;;;14.00;;
41466;SDS011;27205;53.690;19.948;2023-02-28T01:42:42;28.20;;;25.70;;
41466;SDS011;27205;53.690;19.948;2023-02-28T01:47:46;16.40;;;14.90;;
41466;SDS011;27205;53.690;19.948;2023-02-28T01:52:54;12.70;;;11.60;;
41466;SDS011;27205;53.690;19.948;2023-02-28T01:58:04;16.90;;;15.50;;
41466;SDS011;27205;53.690;19.948;2023-02-28T02:03:10;21.20;;;19.60;;
41466;SDS011;27205;53.690;19.948;2023-02-28T02:08:26;30.00;;;27.80;;
41466;SDS011;27205;53.690;19.948;2023-02-28T02:13:42;24.00;;;22.30;;
41466;SDS011;27205;53.690;19.948;2023-02-28T02:19:22;28.80;;;26.20;;
41466;SDS011;27205;53.690;19.948;2023-02-28T02:24:31;26.30;;;23.90;;
41466;SDS011;27205;53.690;19.948;2023-02-28T02:30:09;24.60;;;22.60;;
41466;SDS011;27205;53.690;19.948;2023-02-28T02:35:31;27.90;;;25.70;;
41466;SDS011;27205;53.690;19.948;2023-02-28T02:40:42;33.70;;;31.10;;
41466;SDS011;27205;53.690;19.948;2023-02-28T02:45:54;29.30;;;26.90;;
41466;SDS011;27205;53.690;19.948;2023-02-28T02:51:04;24.60;;;22.60;;
41466;SDS011;27205;53.690;19.948;2023-02-28T02:56:15;24.20;;;22.30;;
41466;SDS011;27205;53.690;19.948;2023-02-28T03:01:23;18.70;;;17.30;;
41466;SDS011;27205;53.690;19.948;2023-02-28T03:06:32;15.90;;;14.70;;
41466;SDS011;27205;53.690;19.948;2023-02-28T03:11:37;18.30;;;16.80;;
41466;SDS011;27205;53.690;19.948;2023-02-28T03:16:59;16.30;;;15.00;;
41466;SDS011;27205;53.690;19.948;2023-02-28T03:27:42;18.40;;;16.90;;
41466;SDS011;27205;53.690;19.948;2023-02-28T03:38:18;18.50;;;17.10;;
41466;SDS011;27205;53.690;19.948;2023-02-28T03:43:24;23.50;;;21.50;;
41466;SDS011;27205;53.690;19.948;2023-02-28T03:48:35;20.90;;;19.20;;
41466;SDS011;27205;53.690;19.948;2023-02-28T03:53:50;21.10;;;19.50;;
41466;SDS011;27205;53.690;19.948;2023-02-28T04:04:37;20.30;;;18.60;;
41466;SDS011;27205;53.690;19.948;2023-02-28T04:09:41;23.40;;;21.40;;
41466;SDS011;27205;53.690;19.948;2023-02-28T04:14:45;21.80;;;20.00;;
41466;SDS011;27205;53.690;19.948;2023-02-28T04:19:49;22.10;;;20.30;;
41466;SDS011;27205;53.690;19.948;2023-02-28T04:24:53;24.20;;;22.20;;
41466;SDS011;27205;53.690;19.948;2023-02-28T04:29:57;20.40;;;18.70;;
41466;SDS011;27205;53.690;19.948;2023-02-28T04:35:00;20.00;;;18.40;;
41466;SDS011;27205;53.690;19.948;2023-02-28T04:40:05;17.80;;;16.40;;
41466;SDS011;27205;53.690;19.948;2023-02-28T04:45:10;16.60;;;15.30;;
41466;SDS011;27205;53.690;19.948;2023-02-28T04:50:14;16.50;;;14.90;;
41466;SDS011;27205;53.690;19.948;2023-02-28T04:55:17;13.40;;;12.30;;
41466;SDS011;27205;53.690;19.948;2023-02-28T05:00:21;11.50;;;10.50;;
41466;SDS011;27205;53.690;19.948;2023-02-28T05:05:24;17.60;;;9.30;;
41466;SDS011;27205;53.690;19.948;2023-02-28T05:10:28;8.30;;;7.70;;
41466;SDS011;27205;53.690;19.948;2023-02-28T05:15:32;8.60;;;7.90;;
41466;SDS011;27205;53.690;19.948;2023-02-28T05:20:37;8.60;;;7.90;;
41466;SDS011;27205;53.690;19.948;2023-02-28T05:25:41;8.10;;;7.50;;
41466;SDS011;27205;53.690;19.948;2023-02-28T05:30:45;10.20;;;9.10;;
41466;SDS011;27205;53.690;19.948;2023-02-28T05:35:48;8.40;;;7.40;;
41466;SDS011;27205;53.690;19.948;2023-02-28T05:40:52;8.40;;;7.80;;
41466;SDS011;27205;53.690;19.948;2023-02-28T05:45:56;14.50;;;13.30;;
41466;SDS011;27205;53.690;19.948;2023-02-28T05:51:00;20.20;;;18.40;;
41466;SDS011;27205;53.690;19.948;2023-02-28T05:56:04;59.50;;;54.20;;
41466;SDS011;27205;53.690;19.948;2023-02-28T06:01:24;30.30;;;27.60;;
41466;SDS011;27205;53.690;19.948;2023-02-28T06:06:35;13.60;;;12.50;;
41466;SDS011;27205;53.690;19.948;2023-02-28T06:11:40;13.80;;;12.70;;
41466;SDS011;27205;53.690;19.948;2023-02-28T06:16:43;13.50;;;12.40;;
41466;SDS011;27205;53.690;19.948;2023-02-28T06:21:48;14.20;;;12.90;;
41466;SDS011;27205;53.690;19.948;2023-02-28T06:26:55;16.80;;;15.40;;
41466;SDS011;27205;53.690;19.948;2023-02-28T06:32:00;21.70;;;19.80;;
41466;SDS011;27205;53.690;19.948;2023-02-28T06:37:04;19.80;;;18.10;;
41466;SDS011;27205;53.690;19.948;2023-02-28T06:42:08;23.50;;;21.20;;
41466;SDS011;27205;53.690;19.948;2023-02-28T06:47:11;21.20;;;19.30;;
41466;SDS011;27205;53.690;19.948;2023-02-28T06:52:15;19.30;;;17.70;;
41466;SDS011;27205;53.690;19.948;2023-02-28T06:57:19;18.70;;;16.90;;
41466;SDS011;27205;53.690;19.948;2023-02-28T07:02:22;33.40;;;29.90;;
41466;SDS011;27205;53.690;19.948;2023-02-28T07:07:26;43.50;;;39.00;;
41466;SDS011;27205;53.690;19.948;2023-02-28T07:17:34;16.00;;;13.50;;
41466;SDS011;27205;53.690;19.948;2023-02-28T07:22:37;14.70;;;13.30;;
41466;SDS011;27205;53.690;19.948;2023-02-28T07:27:41;14.10;;;13.00;;
41466;SDS011;27205;53.690;19.948;2023-02-28T07:32:45;13.40;;;12.10;;
41466;SDS011;27205;53.690;19.948;2023-02-28T07:37:49;12.30;;;11.40;;
41466;SDS011;27205;53.690;19.948;2023-02-28T07:42:52;12.60;;;11.30;;
41466;SDS011;27205;53.690;19.948;2023-02-28T07:47:56;14.00;;;12.80;;
41466;SDS011;27205;53.690;19.948;2023-02-28T07:53:00;12.90;;;11.80;;
41466;SDS011;27205;53.690;19.948;2023-02-28T07:58:04;16.00;;;14.70;;
41466;SDS011;27205;53.690;19.948;2023-02-28T08:03:10;14.40;;;13.20;;
41466;SDS011;27205;53.690;19.948;2023-02-28T08:08:16;13.20;;;12.10;;
41466;SDS011;27205;53.690;19.948;2023-02-28T08:13:19;13.50;;;12.30;;
41466;SDS011;27205;53.690;19.948;2023-02-28T08:18:23;11.60;;;10.60;;
41466;SDS011;27205;53.690;19.948;2023-02-28T08:23:27;12.80;;;11.60;;
41466;SDS011;27205;53.690;19.948;2023-02-28T08:28:30;12.40;;;11.30;;
41466;SDS011;27205;53.690;19.948;2023-02-28T08:33:34;6.80;;;6.30;;
41466;SDS011;27205;53.690;19.948;2023-02-28T08:38:38;6.40;;;5.80;;
41466;SDS011;27205;53.690;19.948;2023-02-28T08:43:42;6.20;;;5.50;;
41466;SDS011;27205;53.690;19.948;2023-02-28T08:48:46;6.70;;;6.20;;
41466;SDS011;27205;53.690;19.948;2023-02-28T08:53:50;6.20;;;5.00;;
41466;SDS011;27205;53.690;19.948;2023-02-28T08:58:54;8.20;;;7.50;;
41466;SDS011;27205;53.690;19.948;2023-02-28T09:03:59;7.80;;;7.20;;
41466;SDS011;27205;53.690;19.948;2023-02-28T09:09:03;8.00;;;7.30;;
41466;SDS011;27205;53.690;19.948;2023-02-28T09:14:09;6.40;;;5.90;;
41466;SDS011;27205;53.690;19.948;2023-02-28T09:19:13;6.40;;;5.90;;
41466;SDS011;27205;53.690;19.948;2023-02-28T09:24:17;4.20;;;3.90;;
41466;SDS011;27205;53.690;19.948;2023-02-28T09:29:21;4.60;;;4.30;;
41466;SDS011;27205;53.690;19.948;2023-02-28T09:34:25;3.50;;;3.30;;
41466;SDS011;27205;53.690;19.948;2023-02-28T09:39:30;3.90;;;3.60;;
41466;SDS011;27205;53.690;19.948;2023-02-28T09:44:38;3.20;;;2.90;;
41466;SDS011;27205;53.690;19.948;2023-02-28T09:49:47;2.40;;;2.20;;
41466;SDS011;27205;53.690;19.948;2023-02-28T09:54:51;3.00;;;2.80;;
41466;SDS011;27205;53.690;19.948;2023-02-28T10:05:27;2.10;;;1.90;;
41466;SDS011;27205;53.690;19.948;2023-02-28T10:10:43;2.20;;;2.00;;
41466;SDS011;27205;53.690;19.948;2023-02-28T10:15:50;1.90;;;1.70;;
41466;SDS011;27205;53.690;19.948;2023-02-28T10:20:58;1.90;;;1.70;;
41466;SDS011;27205;53.690;19.948;2023-02-28T10:26:13;1.60;;;1.50;;
41466;SDS011;27205;53.690;19.948;2023-02-28T10:31:19;2.40;;;1.60;;
41466;SDS011;27205;53.690;19.948;2023-02-28T10:36:24;2.20;;;2.00;;
41466;SDS011;27205;53.690;19.948;2023-02-28T10:41:31;2.10;;;1.90;;
41466;SDS011;27205;53.690;19.948;2023-02-28T10:46:37;3.50;;;2.00;;
41466;SDS011;27205;53.690;19.948;2023-02-28T10:51:43;3.10;;;2.90;;
41466;SDS011;27205;53.690;19.948;2023-02-28T11:02:32;5.00;;;2.70;;
41466;SDS011;27205;53.690;19.948;2023-02-28T11:07:38;2.50;;;2.30;;
41466;SDS011;27205;53.690;19.948;2023-02-28T11:12:55;3.20;;;2.90;;
41466;SDS011;27205;53.690;19.948;2023-02-28T11:18:24;2.30;;;2.20;;
41466;SDS011;27205;53.690;19.948;2023-02-28T11:23:26;3.20;;;2.80;;
41466;SDS011;27205;53.690;19.948;2023-02-28T11:28:34;3.70;;;3.40;;
41466;SDS011;27205;53.690;19.948;2023-02-28T11:33:41;6.70;;;6.10;;
41466;SDS011;27205;53.690;19.948;2023-02-28T11:38:55;3.90;;;3.60;;
41466;SDS011;27205;53.690;19.948;2023-02-28T11:50:01;5.40;;;4.40;;
41466;SDS011;27205;53.690;19.948;2023-02-28T12:05:45;7.10;;;6.40;;
41466;SDS011;27205;53.690;19.948;2023-02-28T12:27:07;5.40;;;5.00;;
41466;SDS011;27205;53.690;19.948;2023-02-28T12:37:41;6.30;;;4.50;;
41466;SDS011;27205;53.690;19.948;2023-02-28T12:42:51;7.40;;;6.10;;
41466;SDS011;27205;53.690;19.948;2023-02-28T12:48:02;6.20;;;5.60;;
41466;SDS011;27205;53.690;19.948;2023-02-28T12:53:09;8.70;;;7.00;;
41466;SDS011;27205;53.690;19.948;2023-02-28T12:58:46;8.20;;;7.40;;
41466;SDS011;27205;53.690;19.948;2023-02-28T13:09:41;5.00;;;4.60;;
41466;SDS011;27205;53.690;19.948;2023-02-28T13:20:29;3.90;;;3.60;;
41466;SDS011;27205;53.690;19.948;2023-02-28T13:36:22;7.10;;;6.40;;
41466;SDS011;27205;53.690;19.948;2023-02-28T14:07:29;5.60;;;5.10;;
41466;SDS011;27205;53.690;19.948;2023-02-28T14:17:58;11.70;;;10.50;;
41466;SDS011;27205;53.690;19.948;2023-02-28T14:23:07;11.50;;;10.70;;
41466;SDS011;27205;53.690;19.948;2023-02-28T14:39:27;2.90;;;2.70;;
41466;SDS011;27205;53.690;19.948;2023-02-28T14:44:36;2.80;;;2.60;;
41466;SDS011;27205;53.690;19.948;2023-02-28T14:49:43;3.60;;;3.30;;
41466;SDS011;27205;53.690;19.948;2023-02-28T14:54:56;2.50;;;2.30;;
41466;SDS011;27205;53.690;19.948;2023-02-28T15:00:25;3.80;;;2.70;;
41466;SDS011;27205;53.690;19.948;2023-02-28T15:05:30;2.50;;;2.30;;
41466;SDS011;27205;53.690;19.948;2023-02-28T15:10:35;2.60;;;2.40;;
41466;SDS011;27205;53.690;19.948;2023-02-28T15:21:06;3.30;;;3.10;;
41466;SDS011;27205;53.690;19.948;2023-02-28T15:26:19;3.20;;;2.90;;
41466;SDS011;27205;53.690;19.948;2023-02-28T15:31:37;3.50;;;3.20;;
41466;SDS011;27205;53.690;19.948;2023-02-28T15:36:58;3.20;;;3.00;;
41466;SDS011;27205;53.690;19.948;2023-02-28T15:42:11;3.50;;;3.20;;
41466;SDS011;27205;53.690;19.948;2023-02-28T15:47:21;3.80;;;3.50;;
41466;SDS011;27205;53.690;19.948;2023-02-28T15:52:33;3.30;;;3.10;;
41466;SDS011;27205;53.690;19.948;2023-02-28T15:57:41;3.30;;;3.10;;
41466;SDS011;27205;53.690;19.948;2023-02-28T16:02:45;4.00;;;3.70;;
41466;SDS011;27205;53.690;19.948;2023-02-28T16:07:49;8.60;;;7.60;;
41466;SDS011;27205;53.690;19.948;2023-02-28T16:12:53;24.90;;;22.30;;
41466;SDS011;27205;53.690;19.948;2023-02-28T16:18:00;33.60;;;30.40;;
41466;SDS011;27205;53.690;19.948;2023-02-28T16:23:03;48.80;;;44.20;;
41466;SDS011;27205;53.690;19.948;2023-02-28T16:28:13;68.80;;;61.80;;
41466;SDS011;27205;53.690;19.948;2023-02-28T16:33:22;48.70;;;43.90;;
41466;SDS011;27205;53.690;19.948;2023-02-28T16:38:26;19.50;;;17.60;;
41466;SDS011;27205;53.690;19.948;2023-02-28T16:43:30;19.70;;;17.70;;
41466;SDS011;27205;53.690;19.948;2023-02-28T16:48:33;20.30;;;18.20;;
41466;SDS011;27205;53.690;19.948;2023-02-28T16:53:37;38.90;;;33.90;;
41466;SDS011;27205;53.690;19.948;2023-02-28T16:58:40;49.30;;;44.00;;
41466;SDS011;27205;53.690;19.948;2023-02-28T17:03:43;19.30;;;17.40;;
41466;SDS011;27205;53.690;19.948;2023-02-28T17:08:51;10.20;;;9.20;;
41466;SDS011;27205;53.690;19.948;2023-02-28T17:13:54;24.60;;;22.10;;
41466;SDS011;27205;53.690;19.948;2023-02-28T17:19:00;33.60;;;30.20;;
41466;SDS011;27205;53.690;19.948;2023-02-28T17:24:06;30.00;;;26.90;;
41466;SDS011;27205;53.690;19.948;2023-02-28T17:29:17;23.70;;;21.40;;
41466;SDS011;27205;53.690;19.948;2023-02-28T17:34:23;23.90;;;21.60;;
41466;SDS011;27205;53.690;19.948;2023-02-28T17:39:27;19.90;;;18.20;;
41466;SDS011;27205;53.690;19.948;2023-02-28T17:44:30;13.20;;;12.00;;
41466;SDS011;27205;53.690;19.948;2023-02-28T17:49:34;12.50;;;11.40;;
41466;SDS011;27205;53.690;19.948;2023-02-28T17:54:38;13.80;;;12.40;;
41466;SDS011;27205;53.690;19.948;2023-02-28T17:59:42;20.20;;;18.20;;
41466;SDS011;27205;53.690;19.948;2023-02-28T18:04:46;66.50;;;59.50;;
41466;SDS011;27205;53.690;19.948;2023-02-28T18:09:49;79.30;;;70.90;;
41466;SDS011;27205;53.690;19.948;2023-02-28T18:14:53;85.70;;;76.80;;
41466;SDS011;27205;53.690;19.948;2023-02-28T18:19:56;86.80;;;77.90;;
41466;SDS011;27205;53.690;19.948;2023-02-28T18:25:05;84.80;;;75.90;;
41466;SDS011;27205;53.690;19.948;2023-02-28T18:30:11;86.30;;;77.40;;
41466;SDS011;27205;53.690;19.948;2023-02-28T18:35:15;68.10;;;61.20;;
41466;SDS011;27205;53.690;19.948;2023-02-28T18:40:20;57.70;;;51.70;;
41466;SDS011;27205;53.690;19.948;2023-02-28T18:45:23;42.00;;;37.70;;
41466;SDS011;27205;53.690;19.948;2023-02-28T18:50:27;66.10;;;59.60;;
41466;SDS011;27205;53.690;19.948;2023-02-28T18:55:31;49.50;;;44.50;;
41466;SDS011;27205;53.690;19.948;2023-02-28T19:00:36;35.20;;;31.60;;
41466;SDS011;27205;53.690;19.948;2023-02-28T19:05:40;25.50;;;23.10;;
41466;SDS011;27205;53.690;19.948;2023-02-28T19:10:43;17.60;;;15.90;;
41466;SDS011;27205;53.690;19.948;2023-02-28T19:15:47;14.10;;;12.90;;
41466;SDS011;27205;53.690;19.948;2023-02-28T19:20:51;14.00;;;12.70;;
41466;SDS011;27205;53.690;19.948;2023-02-28T19:25:54;11.90;;;10.80;;
41466;SDS011;27205;53.690;19.948;2023-02-28T19:31:02;13.10;;;12.00;;
41466;SDS011;27205;53.690;19.948;2023-02-28T19:36:10;15.80;;;12.60;;
41466;SDS011;27205;53.690;19.948;2023-02-28T19:41:15;14.20;;;13.10;;
41466;SDS011;27205;53.690;19.948;2023-02-28T19:46:19;12.70;;;11.60;;
41466;SDS011;27205;53.690;19.948;2023-02-28T19:51:22;11.90;;;10.80;;
41466;SDS011;27205;53.690;19.948;2023-02-28T19:56:26;11.30;;;10.30;;
41466;SDS011;27205;53.690;19.948;2023-02-28T20:01:30;10.20;;;9.40;;
41466;SDS011;27205;53.690;19.948;2023-02-28T20:06:34;11.30;;;10.20;;
41466;SDS011;27205;53.690;19.948;2023-02-28T20:11:38;12.40;;;11.20;;
41466;SDS011;27205;53.690;19.948;2023-02-28T20:16:43;13.20;;;12.00;;
41466;SDS011;27205;53.690;19.948;2023-02-28T20:21:47;15.00;;;13.70;;
41466;SDS011;27205;53.690;19.948;2023-02-28T20:26:51;16.40;;;15.00;;
41466;SDS011;27205;53.690;19.948;2023-02-28T20:31:56;17.50;;;16.00;;
41466;SDS011;27205;53.690;19.948;2023-02-28T20:36:59;14.80;;;13.50;;
41466;SDS011;27205;53.690;19.948;2023-02-28T20:42:03;12.50;;;11.50;;
41466;SDS011;27205;53.690;19.948;2023-02-28T20:47:07;12.30;;;11.20;;
41466;SDS011;27205;53.690;19.948;2023-02-28T20:52:10;14.60;;;13.50;;
41466;SDS011;27205;53.690;19.948;2023-02-28T20:57:14;14.20;;;13.00;;
41466;SDS011;27205;53.690;19.948;2023-02-28T21:02:18;15.30;;;14.20;;
41466;SDS011;27205;53.690;19.948;2023-02-28T21:07:26;12.90;;;12.00;;
41466;SDS011;27205;53.690;19.948;2023-02-28T21:12:30;15.30;;;14.10;;
41466;SDS011;27205;53.690;19.948;2023-02-28T21:17:43;14.10;;;13.00;;
41466;SDS011;27205;53.690;19.948;2023-02-28T21:22:50;16.10;;;14.80;;
41466;SDS011;27205;53.690;19.948;2023-02-28T21:27:55;16.00;;;14.70;;
41466;SDS011;27205;53.690;19.948;2023-02-28T21:33:01;18.00;;;16.60;;
41466;SDS011;27205;53.690;19.948;2023-02-28T21:38:05;15.90;;;14.60;;
41466;SDS011;27205;53.690;19.948;2023-02-28T21:43:08;16.20;;;14.90;;
41466;SDS011;27205;53.690;19.948;2023-02-28T21:48:12;13.40;;;12.30;;
41466;SDS011;27205;53.690;19.948;2023-02-28T21:53:15;12.30;;;11.40;;
41466;SDS011;27205;53.690;19.948;2023-02-28T21:58:19;14.20;;;13.10;;
41466;SDS011;27205;53.690;19.948;2023-02-28T22:03:23;12.30;;;11.40;;
41466;SDS011;27205;53.690;19.948;2023-02-28T22:08:26;13.20;;;12.00;;
41466;SDS011;27205;53.690;19.948;2023-02-28T22:13:30;14.20;;;13.10;;
41466;SDS011;27205;53.690;19.948;2023-02-28T22:18:34;13.80;;;12.70;;
41466;SDS011;27205;53.690;19.948;2023-02-28T22:23:39;18.40;;;16.90;;
41466;SDS011;27205;53.690;19.948;2023-02-28T22:28:43;15.10;;;14.00;;
41466;SDS011;27205;53.690;19.948;2023-02-28T22:33:47;15.00;;;13.70;;
41466;SDS011;27205;53.690;19.948;2023-02-28T22:38:52;13.80;;;12.50;;
41466;SDS011;27205;53.690;19.948;2023-02-28T22:43:57;11.50;;;10.60;;
41466;SDS011;27205;53.690;19.948;2023-02-28T22:49:03;10.60;;;9.80;;
41466;SDS011;27205;53.690;19.948;2023-02-28T22:54:07;9.20;;;8.50;;
41466;SDS011;27205;53.690;19.948;2023-02-28T22:59:12;8.80;;;8.00;;
41466;SDS011;27205;53.690;19.948;2023-02-28T23:04:16;9.00;;;8.30;;
41466;SDS011;27205;53.690;19.948;2023-02-28T23:09:21;9.30;;;8.60;;
41466;SDS011;27205;53.690;19.948;2023-02-28T23:14:25;10.40;;;9.60;;
41466;SDS011;27205;53.690;19.948;2023-02-28T23:19:30;9.60;;;8.90;;
41466;SDS011;27205;53.690;19.948;2023-02-28T23:24:35;9.10;;;8.40;;
41466;SDS011;27205;53.690;19.948;2023-02-28T23:29:39;9.50;;;8.70;;
41466;SDS011;27205;53.690;19.948;2023-02-28T23:34:43;9.80;;;8.90;;
41466;SDS011;27205;53.690;19.948;2023-02-28T23:39:46;11.80;;;10.80;;
41466;SDS011;27205;53.690;19.948;2023-02-28T23:44:50;11.80;;;10.80;;
41466;SDS011;27205;53.690;19.948;2023-02-28T23:49:53;11.00;;;10.10;;
41466;SDS011;27205;53.690;19.948;2023-02-28T23:54:57;11.10;;;10.00;;
